createdAt,value
2019-02-02T00:00:08.581Z,0.20
2019-02-02T00:01:08.580Z,0.20
2019-02-02T00:02:08.568Z,0.20
2019-02-02T00:03:08.559Z,0.30
2019-02-02T00:04:08.547Z,0.30
2019-02-02T00:05:08.550Z,0.30
2019-02-02T00:06:08.525Z,0.30
2019-02-02T00:07:08.547Z,0.20
2019-02-02T00:08:08.494Z,0.30
2019-02-02T00:09:08.491Z,0.20
2019-02-02T00:10:08.481Z,0.20
2019-02-02T00:11:08.472Z,0.30
2019-02-02T00:12:08.460Z,0.20
2019-02-02T00:13:08.447Z,0.20
2019-02-02T00:14:08.428Z,0.30
2019-02-02T00:15:08.424Z,0.20
2019-02-02T00:16:08.415Z,0.20
2019-02-02T00:17:08.403Z,0.20
2019-02-02T00:18:08.393Z,0.20
2019-02-02T00:19:08.381Z,0.20
2019-02-02T00:20:08.434Z,0.20
2019-02-02T00:21:08.360Z,0.30
2019-02-02T00:22:08.354Z,0.20
2019-02-02T00:23:08.336Z,0.20
2019-02-02T00:24:08.325Z,0.20
2019-02-02T00:25:08.379Z,0.20
2019-02-02T00:26:08.343Z,0.20
2019-02-02T00:27:08.293Z,0.20
2019-02-02T00:28:08.281Z,0.20
2019-02-02T00:29:08.271Z,0.20
2019-02-02T00:30:08.258Z,0.20
2019-02-02T00:31:08.245Z,0.20
2019-02-02T00:32:08.236Z,0.20
2019-02-02T00:33:08.231Z,0.20
2019-02-02T00:34:08.201Z,0.20
2019-02-02T00:35:08.201Z,0.20
2019-02-02T00:36:08.190Z,0.20
2019-02-02T00:37:08.179Z,0.10
2019-02-02T00:38:08.213Z,0.20
2019-02-02T00:39:08.158Z,0.20
2019-02-02T00:40:08.144Z,0.20
2019-02-02T00:41:08.132Z,0.20
2019-02-02T00:42:08.113Z,0.20
2019-02-02T00:43:08.109Z,0.10
2019-02-02T00:44:08.097Z,0.20
2019-02-02T00:45:08.086Z,0.20
2019-02-02T00:46:08.074Z,0.20
2019-02-02T00:47:08.067Z,0.20
2019-02-02T00:48:08.044Z,0.20
2019-02-02T00:49:08.039Z,0.20
2019-02-02T00:50:08.033Z,0.20
2019-02-02T00:51:08.018Z,0.20
2019-02-02T00:52:08.006Z,0.20
2019-02-02T00:53:07.993Z,0.20
2019-02-02T00:54:07.982Z,0.30
2019-02-02T00:55:07.970Z,0.20
2019-02-02T00:56:07.965Z,0.20
2019-02-02T00:57:08.037Z,0.20
2019-02-02T00:58:07.942Z,0.20
2019-02-02T00:59:07.924Z,0.20
2019-02-02T01:00:07.914Z,0.20
2019-02-02T01:01:07.948Z,0.20
2019-02-02T01:02:07.891Z,0.20
2019-02-02T01:03:07.877Z,0.20
2019-02-02T01:04:07.858Z,0.20
2019-02-02T01:05:07.857Z,0.20
2019-02-02T01:06:07.842Z,0.20
2019-02-02T01:07:07.833Z,0.20
2019-02-02T01:08:07.824Z,0.20
2019-02-02T01:09:07.814Z,0.20
2019-02-02T01:10:07.788Z,0.30
2019-02-02T01:11:07.789Z,0.20
2019-02-02T01:12:07.779Z,0.20
2019-02-02T01:13:07.768Z,0.20
2019-02-02T01:14:07.757Z,0.20
2019-02-02T01:15:07.744Z,0.20
2019-02-02T01:16:07.732Z,0.20
2019-02-02T01:17:07.719Z,0.20
2019-02-02T01:18:07.709Z,0.20
2019-02-02T01:19:07.698Z,0.20
2019-02-02T01:20:07.687Z,0.20
2019-02-02T01:21:07.675Z,0.10
2019-02-02T01:22:07.663Z,0.20
2019-02-02T01:23:07.667Z,0.10
2019-02-02T01:24:07.641Z,0.20
2019-02-02T01:25:07.630Z,0.20
2019-02-02T01:26:07.619Z,0.20
2019-02-02T01:27:07.609Z,0.20
2019-02-02T01:28:07.595Z,0.20
2019-02-02T01:29:07.585Z,0.10
2019-02-02T01:30:07.572Z,0.10
2019-02-02T01:31:07.561Z,0.20
2019-02-02T01:32:07.565Z,0.20
2019-02-02T01:33:07.535Z,0.20
2019-02-02T01:34:07.526Z,0.10
2019-02-02T01:35:07.516Z,0.20
2019-02-02T01:36:07.507Z,0.20
2019-02-02T01:37:07.497Z,0.10
2019-02-02T01:38:07.483Z,0.10
2019-02-02T01:39:07.472Z,0.20
2019-02-02T01:40:07.456Z,0.20
2019-02-02T01:41:07.453Z,0.20
2019-02-02T01:42:07.440Z,0.10
2019-02-02T01:43:07.428Z,0.10
2019-02-02T01:44:07.414Z,0.20
2019-02-02T01:45:07.404Z,0.20
2019-02-02T01:46:07.411Z,0.10
2019-02-02T01:47:07.378Z,0.10
2019-02-02T01:48:07.370Z,0.20
2019-02-02T01:49:07.359Z,0.10
2019-02-02T01:50:07.345Z,0.20
2019-02-02T01:51:07.333Z,0.20
2019-02-02T01:52:07.324Z,0.20
2019-02-02T01:53:07.316Z,0.10
2019-02-02T01:54:07.303Z,0.10
2019-02-02T01:55:07.290Z,0.20
2019-02-02T01:56:07.275Z,0.20
2019-02-02T01:57:07.267Z,0.20
2019-02-02T01:58:16.569Z,0.20
2019-02-02T01:59:07.245Z,0.20
2019-02-02T02:00:07.267Z,0.20
2019-02-02T02:01:07.223Z,0.20
2019-02-02T02:02:07.211Z,0.20
2019-02-02T02:03:07.203Z,0.20
2019-02-02T02:04:07.189Z,0.20
2019-02-02T02:05:07.178Z,0.20
2019-02-02T02:06:07.163Z,0.20
2019-02-02T02:07:07.154Z,0.20
2019-02-02T02:08:07.142Z,0.20
2019-02-02T02:09:07.132Z,0.10
2019-02-02T02:10:07.127Z,0.20
2019-02-02T02:11:07.111Z,0.20
2019-02-02T02:12:07.101Z,0.20
2019-02-02T02:13:07.089Z,0.10
2019-02-02T02:14:07.073Z,0.20
2019-02-02T02:15:07.065Z,0.10
2019-02-02T02:16:07.056Z,0.10
2019-02-02T02:17:07.046Z,0.20
2019-02-02T02:18:07.174Z,0.20
2019-02-02T02:19:07.010Z,0.10
2019-02-02T02:20:07.009Z,0.10
2019-02-02T02:21:06.999Z,0.20
2019-02-02T02:22:06.996Z,0.20
2019-02-02T02:23:06.979Z,0.20
2019-02-02T02:24:06.964Z,0.20
2019-02-02T02:25:06.954Z,0.20
2019-02-02T02:26:06.945Z,0.20
2019-02-02T02:27:06.932Z,0.10
2019-02-02T02:28:06.922Z,0.10
2019-02-02T02:29:06.907Z,0.20
2019-02-02T02:30:06.897Z,0.10
2019-02-02T02:31:06.891Z,0.10
2019-02-02T02:32:06.876Z,0.20
2019-02-02T02:33:06.864Z,0.20
2019-02-02T02:34:06.860Z,0.20
2019-02-02T02:35:06.843Z,0.20
2019-02-02T02:36:06.840Z,0.20
2019-02-02T02:37:06.824Z,0.10
2019-02-02T02:38:06.939Z,0.20
2019-02-02T02:39:06.800Z,0.20
2019-02-02T02:40:06.791Z,0.20
2019-02-02T02:41:06.822Z,0.20
2019-02-02T02:42:06.767Z,0.20
2019-02-02T02:43:06.757Z,0.20
2019-02-02T02:44:06.744Z,0.10
2019-02-02T02:45:06.735Z,0.20
2019-02-02T02:46:06.734Z,0.20
2019-02-02T02:47:06.712Z,0.20
2019-02-02T02:48:06.700Z,0.20
2019-02-02T02:49:06.689Z,0.20
2019-02-02T02:50:06.678Z,0.20
2019-02-02T02:51:06.670Z,0.20
2019-02-02T02:52:06.658Z,0.20
2019-02-02T02:53:06.647Z,0.20
2019-02-02T02:54:06.637Z,0.20
2019-02-02T02:55:06.627Z,0.20
2019-02-02T02:56:06.615Z,0.20
2019-02-02T02:57:06.606Z,0.20
2019-02-02T02:58:06.590Z,0.20
2019-02-02T02:59:06.582Z,0.20
2019-02-02T03:00:06.582Z,0.20
2019-02-02T03:01:06.560Z,0.20
2019-02-02T03:02:06.554Z,0.20
2019-02-02T03:03:06.537Z,0.20
2019-02-02T03:04:06.527Z,0.10
2019-02-02T03:05:06.518Z,0.20
2019-02-02T03:06:06.518Z,0.20
2019-02-02T03:07:06.496Z,0.20
2019-02-02T03:08:06.527Z,0.20
2019-02-02T03:09:08.468Z,0.20
2019-02-02T03:10:06.460Z,0.10
2019-02-02T03:11:06.454Z,0.20
2019-02-02T03:12:06.479Z,0.20
2019-02-02T03:13:06.433Z,0.20
2019-02-02T03:14:06.413Z,0.20
2019-02-02T03:15:06.419Z,0.20
2019-02-02T03:16:06.399Z,0.20
2019-02-02T03:17:06.389Z,0.20
2019-02-02T03:18:06.378Z,0.20
2019-02-02T03:19:06.366Z,0.20
2019-02-02T03:20:06.357Z,0.20
2019-02-02T03:21:06.339Z,0.20
2019-02-02T03:22:06.450Z,0.20
2019-02-02T03:23:06.327Z,0.20
2019-02-02T03:24:06.315Z,0.20
2019-02-02T03:25:06.302Z,0.20
2019-02-02T03:26:06.289Z,0.10
2019-02-02T03:27:06.279Z,0.20
2019-02-02T03:28:06.265Z,0.20
2019-02-02T03:29:06.259Z,0.20
2019-02-02T03:30:06.249Z,0.20
2019-02-02T03:31:06.261Z,0.20
2019-02-02T03:32:06.227Z,0.20
2019-02-02T03:33:06.217Z,0.20
2019-02-02T03:34:06.238Z,0.20
2019-02-02T03:35:06.194Z,0.20
2019-02-02T03:36:06.191Z,0.20
2019-02-02T03:37:06.173Z,0.20
2019-02-02T03:38:06.164Z,0.20
2019-02-02T03:39:06.152Z,0.20
2019-02-02T03:40:06.141Z,0.20
2019-02-02T03:41:06.130Z,0.20
2019-02-02T03:42:06.117Z,0.20
2019-02-02T03:43:06.106Z,0.20
2019-02-02T03:44:06.103Z,0.30
2019-02-02T03:45:06.087Z,0.20
2019-02-02T03:46:06.084Z,0.10
2019-02-02T03:47:06.064Z,0.20
2019-02-02T03:48:06.053Z,0.20
2019-02-02T03:49:06.040Z,0.10
2019-02-02T03:50:06.027Z,0.30
2019-02-02T03:51:06.023Z,0.20
2019-02-02T03:52:06.024Z,0.20
2019-02-02T03:53:06.000Z,0.20
2019-02-02T03:54:08.946Z,0.10
2019-02-02T03:55:05.979Z,0.20
2019-02-02T03:56:05.968Z,0.20
2019-02-02T03:57:05.958Z,0.20
2019-02-02T03:58:05.957Z,0.20
2019-02-02T03:59:07.191Z,0.20
2019-02-02T04:00:08.546Z,0.20
2019-02-02T04:01:05.916Z,0.20
2019-02-02T04:02:05.905Z,0.20
2019-02-02T04:03:05.896Z,0.20
2019-02-02T04:04:05.903Z,0.20
2019-02-02T04:05:05.875Z,0.20
2019-02-02T04:06:05.865Z,0.20
2019-02-02T04:07:05.856Z,0.20
2019-02-02T04:08:05.869Z,0.20
2019-02-02T04:09:05.837Z,0.20
2019-02-02T04:10:05.823Z,0.20
2019-02-02T04:11:05.814Z,0.20
2019-02-02T04:12:05.800Z,0.20
2019-02-02T04:13:05.794Z,0.20
2019-02-02T04:14:05.783Z,0.20
2019-02-02T04:15:05.782Z,0.20
2019-02-02T04:16:05.764Z,0.20
2019-02-02T04:17:05.750Z,0.30
2019-02-02T04:18:05.741Z,0.10
2019-02-02T04:19:05.729Z,0.20
2019-02-02T04:20:05.721Z,0.20
2019-02-02T04:21:05.711Z,0.10
2019-02-02T04:22:05.720Z,0.20
2019-02-02T04:23:05.687Z,0.20
2019-02-02T04:24:05.677Z,0.20
2019-02-02T04:25:05.671Z,0.20
2019-02-02T04:26:05.654Z,0.20
2019-02-02T04:27:05.655Z,0.20
2019-02-02T04:28:05.637Z,0.20
2019-02-02T04:29:17.042Z,0.20
2019-02-02T04:30:05.614Z,0.20
2019-02-02T04:31:05.604Z,0.30
2019-02-02T04:32:05.598Z,0.20
2019-02-02T04:33:05.589Z,0.20
2019-02-02T04:34:05.574Z,0.30
2019-02-02T04:35:05.562Z,0.20
2019-02-02T04:36:05.552Z,0.20
2019-02-02T04:37:05.547Z,0.20
2019-02-02T04:38:05.535Z,0.20
2019-02-02T04:39:05.521Z,0.20
2019-02-02T04:40:05.510Z,0.20
2019-02-02T04:41:05.506Z,0.20
2019-02-02T04:42:05.489Z,0.20
2019-02-02T04:43:05.478Z,0.20
2019-02-02T04:44:05.468Z,0.20
2019-02-02T04:45:05.461Z,0.20
2019-02-02T04:46:05.449Z,0.20
2019-02-02T04:47:05.439Z,0.20
2019-02-02T04:48:05.427Z,0.20
2019-02-02T04:49:05.416Z,0.20
2019-02-02T04:50:07.054Z,0.10
2019-02-02T04:51:08.062Z,0.20
2019-02-02T04:52:05.380Z,0.20
2019-02-02T04:53:05.396Z,0.20
2019-02-02T04:54:05.363Z,0.20
2019-02-02T04:55:05.358Z,0.20
2019-02-02T04:56:05.339Z,0.20
2019-02-02T04:57:05.330Z,0.20
2019-02-02T04:58:05.319Z,0.20
2019-02-02T04:59:05.308Z,0.20
2019-02-02T05:00:05.322Z,0.20
2019-02-02T05:01:05.287Z,0.20
2019-02-02T05:02:05.280Z,0.20
2019-02-02T05:03:05.265Z,0.20
2019-02-02T05:04:05.265Z,0.20
2019-02-02T05:05:05.245Z,0.20
2019-02-02T05:06:05.232Z,0.20
2019-02-02T05:07:05.222Z,0.10
2019-02-02T05:08:05.217Z,0.20
2019-02-02T05:09:05.235Z,0.10
2019-02-02T05:10:05.180Z,0.20
2019-02-02T05:11:05.180Z,0.20
2019-02-02T05:12:05.168Z,0.20
2019-02-02T05:13:05.157Z,0.10
2019-02-02T05:14:05.145Z,0.20
2019-02-02T05:15:05.138Z,0.10
2019-02-02T05:16:05.127Z,0.10
2019-02-02T05:17:05.116Z,0.10
2019-02-02T05:18:05.105Z,0.10
2019-02-02T05:19:05.095Z,0.10
2019-02-02T05:20:05.086Z,0.20
2019-02-02T05:21:05.079Z,0.20
2019-02-02T05:22:05.063Z,0.20
2019-02-02T05:23:05.051Z,0.10
2019-02-02T05:24:05.049Z,0.10
2019-02-02T05:25:05.036Z,0.20
2019-02-02T05:26:05.027Z,0.20
2019-02-02T05:27:05.002Z,0.20
2019-02-02T05:28:04.998Z,0.10
2019-02-02T05:29:04.987Z,0.20
2019-02-02T05:30:04.979Z,0.10
2019-02-02T05:31:04.970Z,0.10
2019-02-02T05:32:04.960Z,0.10
2019-02-02T05:33:04.938Z,0.20
2019-02-02T05:34:04.937Z,0.20
2019-02-02T05:35:04.929Z,0.20
2019-02-02T05:36:04.917Z,0.10
2019-02-02T05:37:04.904Z,0.20
2019-02-02T05:38:04.896Z,0.20
2019-02-02T05:39:04.885Z,0.10
2019-02-02T05:40:04.872Z,0.20
2019-02-02T05:41:04.865Z,0.20
2019-02-02T05:42:04.854Z,0.10
2019-02-02T05:43:04.987Z,0.10
2019-02-02T05:44:04.841Z,0.20
2019-02-02T05:45:04.824Z,0.20
2019-02-02T05:46:04.850Z,0.20
2019-02-02T05:47:04.805Z,0.20
2019-02-02T05:48:04.792Z,0.10
2019-02-02T05:49:04.791Z,0.20
2019-02-02T05:50:04.770Z,0.20
2019-02-02T05:51:04.759Z,0.20
2019-02-02T05:52:04.749Z,0.20
2019-02-02T05:53:04.740Z,0.20
2019-02-02T05:54:04.727Z,0.20
2019-02-02T05:55:04.718Z,0.20
2019-02-02T05:56:04.733Z,0.20
2019-02-02T05:57:04.697Z,0.20
2019-02-02T05:58:04.688Z,0.20
2019-02-02T05:59:04.676Z,0.10
2019-02-02T06:00:04.664Z,0.20
2019-02-02T06:01:04.658Z,0.20
2019-02-02T06:02:04.644Z,0.10
2019-02-02T06:03:04.635Z,0.20
2019-02-02T06:04:04.617Z,0.20
2019-02-02T06:05:04.654Z,0.20
2019-02-02T06:06:04.595Z,0.20
2019-02-02T06:07:04.593Z,0.10
2019-02-02T06:08:04.584Z,0.20
2019-02-02T06:09:04.572Z,0.20
2019-02-02T06:10:04.559Z,0.10
2019-02-02T06:11:04.559Z,0.20
2019-02-02T06:12:04.540Z,0.20
2019-02-02T06:13:04.528Z,0.10
2019-02-02T06:14:04.522Z,0.10
2019-02-02T06:15:04.508Z,0.10
2019-02-02T06:16:04.502Z,0.20
2019-02-02T06:17:04.487Z,0.20
2019-02-02T06:18:04.478Z,0.20
2019-02-02T06:19:04.485Z,0.20
2019-02-02T06:20:04.455Z,0.20
2019-02-02T06:21:04.446Z,0.20
2019-02-02T06:22:04.433Z,0.20
2019-02-02T06:23:04.422Z,0.20
2019-02-02T06:24:04.411Z,0.10
2019-02-02T06:25:04.410Z,0.20
2019-02-02T06:26:04.393Z,0.20
2019-02-02T06:27:04.384Z,0.20
2019-02-02T06:28:04.369Z,0.20
2019-02-02T06:29:04.352Z,0.20
2019-02-02T06:30:04.977Z,0.30
2019-02-02T06:31:04.340Z,0.30
2019-02-02T06:32:11.403Z,0.30
2019-02-02T06:33:04.333Z,0.30
2019-02-02T06:34:04.314Z,0.20
2019-02-02T06:35:04.295Z,0.20
2019-02-02T06:36:04.296Z,0.20
2019-02-02T06:37:04.275Z,0.10
2019-02-02T06:38:04.264Z,0.20
2019-02-02T06:39:04.257Z,0.20
2019-02-02T06:40:04.242Z,0.20
2019-02-02T06:41:04.237Z,0.20
2019-02-02T06:42:04.241Z,0.20
2019-02-02T06:43:04.213Z,0.20
2019-02-02T06:44:04.201Z,0.20
2019-02-02T06:45:04.189Z,0.30
2019-02-02T06:46:04.181Z,0.30
2019-02-02T06:47:04.180Z,0.20
2019-02-02T06:48:04.161Z,0.20
2019-02-02T06:49:04.149Z,0.20
2019-02-02T06:50:04.135Z,0.20
2019-02-02T06:51:04.138Z,0.20
2019-02-02T06:52:04.145Z,0.20
2019-02-02T06:53:04.104Z,0.10
2019-02-02T06:54:04.096Z,0.20
2019-02-02T06:55:04.094Z,0.30
2019-02-02T06:56:04.074Z,0.30
2019-02-02T06:57:04.071Z,0.20
2019-02-02T06:58:04.054Z,0.20
2019-02-02T06:59:04.042Z,0.20
2019-02-02T07:00:15.538Z,0.20
2019-02-02T07:01:04.022Z,0.20
2019-02-02T07:02:04.003Z,0.20
2019-02-02T07:03:04.002Z,0.20
2019-02-02T07:04:03.991Z,0.30
2019-02-02T07:05:03.989Z,0.30
2019-02-02T07:06:03.973Z,0.30
2019-02-02T07:07:03.963Z,0.30
2019-02-02T07:08:04.043Z,0.30
2019-02-02T07:09:03.945Z,0.20
2019-02-02T07:10:03.931Z,0.30
2019-02-02T07:11:03.920Z,0.20
2019-02-02T07:12:03.912Z,0.30
2019-02-02T07:13:03.899Z,0.30
2019-02-02T07:14:03.924Z,0.20
2019-02-02T07:15:03.880Z,0.20
2019-02-02T07:16:03.869Z,0.30
2019-02-02T07:17:03.858Z,0.20
2019-02-02T07:18:03.847Z,0.30
2019-02-02T07:19:03.836Z,0.20
2019-02-02T07:20:03.831Z,0.30
2019-02-02T07:21:03.820Z,0.20
2019-02-02T07:22:03.807Z,0.20
2019-02-02T07:23:03.802Z,0.20
2019-02-02T07:24:03.788Z,0.20
2019-02-02T07:25:03.767Z,0.20
2019-02-02T07:26:03.771Z,0.20
2019-02-02T07:27:03.764Z,0.30
2019-02-02T07:28:03.745Z,0.20
2019-02-02T07:29:03.738Z,0.20
2019-02-02T07:30:05.173Z,0.20
2019-02-02T07:31:03.717Z,0.20
2019-02-02T07:32:03.705Z,0.20
2019-02-02T07:33:03.698Z,0.20
2019-02-02T07:34:03.684Z,0.30
2019-02-02T07:35:03.682Z,0.20
2019-02-02T07:36:03.674Z,0.20
2019-02-02T07:37:03.657Z,0.30
2019-02-02T07:38:03.659Z,0.20
2019-02-02T07:39:03.675Z,0.20
2019-02-02T07:40:03.632Z,0.20
2019-02-02T07:41:03.624Z,0.20
2019-02-02T07:42:03.612Z,0.20
2019-02-02T07:43:03.603Z,0.20
2019-02-02T07:44:03.593Z,0.20
2019-02-02T07:45:03.585Z,0.20
2019-02-02T07:46:13.858Z,0.20
2019-02-02T07:47:03.568Z,0.20
2019-02-02T07:48:03.561Z,0.20
2019-02-02T07:49:03.550Z,0.20
2019-02-02T07:50:03.539Z,0.20
2019-02-02T07:51:03.530Z,0.30
2019-02-02T07:52:03.552Z,0.20
2019-02-02T07:53:03.514Z,0.20
2019-02-02T07:54:03.505Z,0.10
2019-02-02T07:55:03.502Z,0.20
2019-02-02T07:56:03.489Z,0.30
2019-02-02T07:57:03.479Z,0.30
2019-02-02T07:58:03.469Z,0.20
2019-02-02T07:59:03.467Z,0.30
2019-02-02T08:00:03.454Z,0.20
2019-02-02T08:01:03.450Z,0.20
2019-02-02T08:02:03.439Z,0.20
2019-02-02T08:03:03.435Z,0.20
2019-02-02T08:04:03.420Z,0.20
2019-02-02T08:05:03.414Z,0.20
2019-02-02T08:06:03.404Z,0.20
2019-02-02T08:07:03.398Z,0.20
2019-02-02T08:08:03.389Z,0.20
2019-02-02T08:09:03.382Z,0.20
2019-02-02T08:10:03.369Z,0.20
2019-02-02T08:11:03.361Z,0.30
2019-02-02T08:12:03.354Z,0.20
2019-02-02T08:13:03.348Z,0.20
2019-02-02T08:14:03.337Z,0.20
2019-02-02T08:15:03.328Z,0.20
2019-02-02T08:16:03.320Z,0.20
2019-02-02T08:17:03.310Z,0.20
2019-02-02T08:18:03.295Z,0.20
2019-02-02T08:19:03.291Z,0.20
2019-02-02T08:20:03.284Z,0.20
2019-02-02T08:21:03.275Z,0.20
2019-02-02T08:22:03.267Z,0.20
2019-02-02T08:23:03.261Z,0.20
2019-02-02T08:24:03.252Z,0.20
2019-02-02T08:25:03.242Z,0.10
2019-02-02T08:26:03.233Z,0.20
2019-02-02T08:27:03.224Z,0.20
2019-02-02T08:28:03.209Z,0.20
2019-02-02T08:29:03.208Z,0.20
2019-02-02T08:30:03.197Z,0.20
2019-02-02T08:31:03.192Z,0.20
2019-02-02T08:32:03.184Z,0.20
2019-02-02T08:33:03.173Z,0.20
2019-02-02T08:34:03.164Z,0.20
2019-02-02T08:35:03.157Z,0.20
2019-02-02T08:36:04.135Z,0.20
2019-02-02T08:37:03.140Z,0.30
2019-02-02T08:38:03.126Z,0.20
2019-02-02T08:39:03.122Z,0.20
2019-02-02T08:40:03.114Z,0.20
2019-02-02T08:41:03.107Z,0.20
2019-02-02T08:42:03.097Z,0.20
2019-02-02T08:43:03.085Z,0.20
2019-02-02T08:44:03.081Z,0.10
2019-02-02T08:45:03.064Z,0.20
2019-02-02T08:46:03.062Z,0.20
2019-02-02T08:47:03.055Z,0.20
2019-02-02T08:48:03.070Z,0.20
2019-02-02T08:49:03.037Z,0.20
2019-02-02T08:50:03.027Z,0.20
2019-02-02T08:51:03.024Z,0.20
2019-02-02T08:52:03.010Z,0.10
2019-02-02T08:53:03.003Z,0.20
2019-02-02T08:54:03.523Z,0.20
2019-02-02T08:55:03.019Z,0.20
2019-02-02T08:56:02.974Z,0.20
2019-02-02T08:57:02.993Z,0.20
2019-02-02T08:58:03.081Z,0.20
2019-02-02T08:59:02.961Z,0.20
2019-02-02T09:00:02.962Z,0.20
2019-02-02T09:01:04.404Z,0.20
2019-02-02T09:02:03.611Z,0.20
2019-02-02T09:03:02.909Z,0.20
2019-02-02T09:04:02.904Z,0.20
2019-02-02T09:05:02.894Z,0.20
2019-02-02T09:06:02.890Z,0.20
2019-02-02T09:07:02.873Z,0.20
2019-02-02T09:08:02.863Z,0.10
2019-02-02T09:09:02.854Z,0.30
2019-02-02T09:10:02.844Z,0.20
2019-02-02T09:11:02.834Z,0.30
2019-02-02T09:12:02.824Z,0.20
2019-02-02T09:13:02.817Z,0.20
2019-02-02T09:14:02.806Z,0.20
2019-02-02T09:15:02.796Z,0.20
2019-02-02T09:16:02.789Z,0.30
2019-02-02T09:17:02.784Z,0.20
2019-02-02T09:18:02.769Z,0.20
2019-02-02T09:19:02.757Z,0.20
2019-02-02T09:20:02.754Z,0.20
2019-02-02T09:21:02.746Z,0.30
2019-02-02T09:22:02.760Z,0.20
2019-02-02T09:23:06.414Z,0.20
2019-02-02T09:24:02.715Z,0.20
2019-02-02T09:25:02.705Z,0.20
2019-02-02T09:26:02.696Z,0.20
2019-02-02T09:27:02.706Z,0.20
2019-02-02T09:28:02.680Z,0.20
2019-02-02T09:29:02.673Z,0.30
2019-02-02T09:30:02.662Z,0.20
2019-02-02T09:31:02.651Z,0.20
2019-02-02T09:32:02.645Z,0.20
2019-02-02T09:33:02.637Z,0.20
2019-02-02T09:34:02.627Z,0.20
2019-02-02T09:35:02.617Z,0.20
2019-02-02T09:36:02.609Z,0.20
2019-02-02T09:37:02.600Z,0.20
2019-02-02T09:38:02.594Z,0.20
2019-02-02T09:39:02.583Z,0.20
2019-02-02T09:40:02.574Z,0.20
2019-02-02T09:41:02.565Z,0.20
2019-02-02T09:42:02.557Z,0.20
2019-02-02T09:43:02.547Z,0.30
2019-02-02T09:44:02.539Z,0.20
2019-02-02T09:45:02.535Z,0.30
2019-02-02T09:46:04.718Z,0.20
2019-02-02T09:47:02.510Z,0.30
2019-02-02T09:48:02.502Z,0.30
2019-02-02T09:49:02.495Z,0.20
2019-02-02T09:50:02.481Z,0.30
2019-02-02T09:51:02.477Z,0.20
2019-02-02T09:52:02.473Z,0.20
2019-02-02T09:53:02.476Z,0.20
2019-02-02T09:54:02.452Z,0.20
2019-02-02T09:55:02.442Z,0.20
2019-02-02T09:56:02.434Z,0.30
2019-02-02T09:57:02.426Z,0.20
2019-02-02T09:58:02.420Z,0.20
2019-02-02T09:59:02.405Z,0.20
2019-02-02T10:00:02.405Z,0.30
2019-02-02T10:01:02.393Z,0.30
2019-02-02T10:02:02.384Z,0.20
2019-02-02T10:03:02.378Z,0.30
2019-02-02T10:04:02.379Z,0.30
2019-02-02T10:05:02.361Z,0.20
2019-02-02T10:06:02.351Z,0.30
2019-02-02T10:07:02.343Z,0.20
2019-02-02T10:08:02.335Z,0.40
2019-02-02T10:09:02.329Z,0.30
2019-02-02T10:10:02.325Z,0.30
2019-02-02T10:11:02.312Z,0.30
2019-02-02T10:12:02.305Z,0.20
2019-02-02T10:13:02.296Z,0.30
2019-02-02T10:14:02.302Z,0.30
2019-02-02T10:15:02.282Z,0.30
2019-02-02T10:16:02.273Z,0.20
2019-02-02T10:17:02.265Z,0.30
2019-02-02T10:18:02.259Z,0.20
2019-02-02T10:19:02.261Z,0.30
2019-02-02T10:20:02.245Z,0.30
2019-02-02T10:21:04.050Z,0.30
2019-02-02T10:22:02.227Z,0.30
2019-02-02T10:23:02.370Z,0.30
2019-02-02T10:24:02.231Z,0.30
2019-02-02T10:25:02.210Z,0.30
2019-02-02T10:26:02.198Z,0.30
2019-02-02T10:27:02.186Z,0.30
2019-02-02T10:28:02.176Z,0.30
2019-02-02T10:29:02.176Z,0.30
2019-02-02T10:30:02.166Z,0.30
2019-02-02T10:31:02.157Z,0.30
2019-02-02T10:32:02.150Z,0.20
2019-02-02T10:33:02.143Z,0.30
2019-02-02T10:34:02.142Z,0.30
2019-02-02T10:35:02.131Z,0.30
2019-02-02T10:36:02.121Z,0.30
2019-02-02T10:37:02.116Z,0.20
2019-02-02T10:38:02.115Z,0.30
2019-02-02T10:39:02.154Z,0.30
2019-02-02T10:40:02.093Z,0.20
2019-02-02T10:41:02.082Z,0.30
2019-02-02T10:42:02.075Z,0.30
2019-02-02T10:43:02.064Z,0.30
2019-02-02T10:44:02.062Z,0.30
2019-02-02T10:45:02.061Z,0.30
2019-02-02T10:46:02.048Z,0.30
2019-02-02T10:47:02.041Z,0.30
2019-02-02T10:48:02.053Z,0.40
2019-02-02T10:49:02.029Z,0.40
2019-02-02T10:50:02.022Z,0.40
2019-02-02T10:51:02.013Z,0.30
2019-02-02T10:52:02.013Z,0.30
2019-02-02T10:53:02.006Z,0.30
2019-02-02T10:54:01.998Z,0.40
2019-02-02T10:55:01.992Z,0.40
2019-02-02T10:56:01.986Z,0.40
2019-02-02T10:57:01.983Z,0.30
2019-02-02T10:58:02.014Z,0.30
2019-02-02T10:59:01.971Z,0.30
2019-02-02T11:00:01.967Z,0.30
2019-02-02T11:01:01.957Z,0.30
2019-02-02T11:02:01.962Z,0.30
2019-02-02T11:03:01.948Z,0.30
2019-02-02T11:04:01.946Z,0.30
2019-02-02T11:05:01.966Z,0.30
2019-02-02T11:06:01.931Z,0.30
2019-02-02T11:07:01.924Z,0.40
2019-02-02T11:08:02.047Z,0.40
2019-02-02T11:09:02.042Z,0.50
2019-02-02T11:10:01.961Z,0.50
2019-02-02T11:11:01.979Z,0.50
2019-02-02T11:12:01.899Z,0.40
2019-02-02T11:13:01.900Z,0.50
2019-02-02T11:14:02.086Z,0.30
2019-02-02T11:15:02.105Z,0.40
2019-02-02T11:16:02.155Z,0.30
2019-02-02T11:17:01.886Z,0.30
2019-02-02T11:18:01.978Z,0.30
2019-02-02T11:19:01.871Z,0.30
2019-02-02T11:20:01.938Z,0.30
2019-02-02T11:21:01.903Z,0.30
2019-02-02T11:22:01.947Z,0.40
2019-02-02T11:23:01.877Z,0.40
2019-02-02T11:24:01.903Z,0.40
2019-02-02T11:25:01.953Z,0.40
2019-02-02T11:26:01.893Z,0.30
2019-02-02T11:27:01.909Z,0.30
2019-02-02T11:28:02.072Z,0.20
2019-02-02T11:29:01.827Z,0.30
2019-02-02T11:30:01.889Z,0.30
2019-02-02T11:31:01.820Z,0.20
2019-02-02T11:32:03.142Z,0.40
2019-02-02T11:33:01.819Z,0.30
2019-02-02T11:34:01.807Z,0.40
2019-02-02T11:35:01.800Z,0.30
2019-02-02T11:36:04.072Z,0.40
2019-02-02T11:37:01.802Z,0.40
2019-02-02T11:38:01.791Z,0.30
2019-02-02T11:39:01.788Z,0.30
2019-02-02T11:40:01.781Z,0.40
2019-02-02T11:41:01.784Z,0.40
2019-02-02T11:42:01.766Z,0.40
2019-02-02T11:43:01.772Z,0.40
2019-02-02T11:44:01.767Z,0.50
2019-02-02T11:45:01.784Z,0.50
2019-02-02T11:46:01.759Z,0.50
2019-02-02T11:47:01.754Z,0.30
2019-02-02T11:48:01.753Z,0.30
2019-02-02T11:49:01.748Z,0.30
2019-02-02T11:50:01.755Z,0.50
2019-02-02T11:51:01.742Z,0.40
2019-02-02T11:52:01.738Z,0.40
2019-02-02T11:53:01.736Z,0.30
2019-02-02T11:54:01.730Z,0.40
2019-02-02T11:55:01.727Z,0.30
2019-02-02T11:56:01.723Z,0.30
2019-02-02T11:57:01.719Z,0.30
2019-02-02T11:58:01.717Z,0.40
2019-02-02T11:59:01.711Z,0.40
2019-02-02T12:00:01.707Z,0.40
2019-02-02T12:01:01.705Z,0.40
2019-02-02T12:02:01.702Z,0.30
2019-02-02T12:03:04.318Z,0.40
2019-02-02T12:04:01.700Z,0.30
2019-02-02T12:05:01.732Z,0.30
2019-02-02T12:06:01.689Z,0.50
2019-02-02T12:07:01.683Z,0.60
2019-02-02T12:08:01.682Z,0.80
2019-02-02T12:09:01.672Z,0.80
2019-02-02T12:10:01.673Z,0.60
2019-02-02T12:11:01.669Z,1.00
2019-02-02T12:12:01.665Z,1.20
2019-02-02T12:13:01.665Z,0.90
2019-02-02T12:14:01.659Z,0.90
2019-02-02T12:15:01.683Z,1.00
2019-02-02T12:16:01.656Z,0.90
2019-02-02T12:17:01.658Z,1.00
2019-02-02T12:18:01.649Z,0.90
2019-02-02T12:19:01.650Z,0.90
2019-02-02T12:20:01.647Z,0.90
2019-02-02T12:21:01.640Z,1.00
2019-02-02T12:22:01.642Z,0.80
2019-02-02T12:23:01.639Z,0.90
2019-02-02T12:24:13.115Z,0.80
2019-02-02T12:25:02.222Z,0.90
2019-02-02T12:26:03.662Z,0.90
2019-02-02T12:27:01.692Z,0.90
2019-02-02T12:28:01.637Z,0.90
2019-02-02T12:29:01.629Z,0.80
2019-02-02T12:30:01.631Z,0.80
2019-02-02T12:31:01.683Z,0.80
2019-02-02T12:32:01.622Z,0.70
2019-02-02T12:33:03.174Z,0.80
2019-02-02T12:34:01.619Z,0.90
2019-02-02T12:35:04.536Z,0.80
2019-02-02T12:36:01.616Z,0.90
2019-02-02T12:37:01.615Z,0.70
2019-02-02T12:38:01.611Z,0.70
2019-02-02T12:39:01.611Z,0.80
2019-02-02T12:40:01.610Z,0.70
2019-02-02T12:41:01.606Z,0.70
2019-02-02T12:42:01.607Z,0.70
2019-02-02T12:43:01.615Z,0.70
2019-02-02T12:44:01.604Z,0.70
2019-02-02T12:45:01.608Z,0.60
2019-02-02T12:46:01.605Z,0.70
2019-02-02T12:47:01.597Z,0.70
2019-02-02T12:48:01.639Z,0.70
2019-02-02T12:49:01.598Z,0.60
2019-02-02T12:50:01.596Z,0.70
2019-02-02T12:51:01.596Z,0.70
2019-02-02T12:52:01.594Z,0.60
2019-02-02T12:53:01.590Z,0.70
2019-02-02T12:54:01.587Z,0.60
2019-02-02T12:55:01.585Z,0.60
2019-02-02T12:56:01.585Z,0.50
2019-02-02T12:57:01.582Z,0.30
2019-02-02T12:58:01.578Z,0.20
2019-02-02T12:59:01.576Z,0.20
2019-02-02T13:00:01.572Z,0.20
2019-02-02T13:01:01.570Z,0.10
2019-02-02T13:02:01.567Z,0.20
2019-02-02T13:03:01.563Z,0.20
2019-02-02T13:04:05.187Z,0.20
2019-02-02T13:05:01.556Z,0.20
2019-02-02T13:06:01.549Z,0.20
2019-02-02T13:07:01.561Z,0.20
2019-02-02T13:08:01.541Z,0.20
2019-02-02T13:09:01.536Z,0.30
2019-02-02T13:10:01.536Z,0.30
2019-02-02T13:11:01.527Z,0.30
2019-02-02T13:12:01.522Z,0.30
2019-02-02T13:13:01.517Z,0.30
2019-02-02T13:14:01.513Z,0.30
2019-02-02T13:15:01.509Z,0.30
2019-02-02T13:16:01.505Z,0.40
2019-02-02T13:17:01.499Z,0.30
2019-02-02T13:18:01.491Z,0.30